首页
METAR-TAF:

METAR-TAF

机场 :

皮耶什佳尼, 斯洛伐克

纬度: 48-37-30N, 经度: 017-49-43E, 海拔: 163米

当前天气观测

该预报发布于26分钟前的22:00 UTC
风速3节,风向北转东北
温度 11°C
湿度 76%
气压 1003 hPa
能见度10公里或以上

METAR: LZPP 032200Z AUTO 02003KT 9999 OVC210/// 11/07 Q1003

时间: 00:26 (22:26 UTC)

预报

该预报发布于5小时和26分钟前的17:00 UTC
预报有效从03日的 18点(UTC)到 04日的 03点(UTC)
风速6节,风向
能见度10公里或以上
1500米以下无云,无积雨云

TAF: LZPP 031700Z 0318/0403 35006KT CAVOK

超过4000个机场的气象观测和天气预报(METAR&TAF报告)。

可查询的气象台以黄色和红色小点在地图上表示。

将鼠标移到小点上方,可查看气象台名称。

然后点击查看天气观测和预报。

如需切换地图:点击带黑十字的绿色按钮放大地图;点击带横线的绿色按钮缩小地图;或者点击绿色箭头查看邻近地区的地图。


METAR-TAF: